createdAt,value
2023-04-17T00:01:16.230Z,6.99
2023-04-17T00:03:44.963Z,6.99
2023-04-17T00:06:14.257Z,6.95
2023-04-17T00:08:43.689Z,6.95
2023-04-17T00:11:11.867Z,6.92
2023-04-17T00:13:39.998Z,6.90
2023-04-17T00:16:10.901Z,6.89
2023-04-17T00:18:39.694Z,6.91
2023-04-17T00:21:07.864Z,6.91
2023-04-17T00:23:36.105Z,6.91
2023-04-17T00:26:04.255Z,6.80
2023-04-17T00:28:33.259Z,6.92
2023-04-17T00:31:01.578Z,6.92
2023-04-17T00:33:30.138Z,6.94
2023-04-17T00:35:58.450Z,6.94
2023-04-17T00:38:26.625Z,6.95
2023-04-17T00:40:54.744Z,6.95
2023-04-17T00:43:22.857Z,6.96
2023-04-17T00:45:51.369Z,6.96
2023-04-17T00:48:24.101Z,6.96
2023-04-17T00:50:53.053Z,6.93
2023-04-17T00:53:21.287Z,6.93
2023-04-17T00:55:51.470Z,6.92
2023-04-17T00:58:19.928Z,6.92
2023-04-17T01:00:49.029Z,6.90
2023-04-17T01:03:17.658Z,6.88
2023-04-17T01:05:49.917Z,6.86
2023-04-17T01:08:19.310Z,6.84
2023-04-17T01:10:47.974Z,6.82
2023-04-17T01:13:16.248Z,6.81
2023-04-17T01:15:44.938Z,6.81
2023-04-17T01:18:13.757Z,6.82
2023-04-17T01:20:41.837Z,6.83
2023-04-17T01:23:10.018Z,6.85
2023-04-17T01:25:38.293Z,6.84
2023-04-17T01:28:06.574Z,6.84
2023-04-17T01:30:35.528Z,6.83
2023-04-17T01:33:07.302Z,6.84
2023-04-17T01:35:35.465Z,6.85
2023-04-17T01:38:03.664Z,6.85
2023-04-17T01:40:32.142Z,6.83
2023-04-17T01:43:01.183Z,6.86
2023-04-17T01:45:29.462Z,6.87
2023-04-17T01:47:57.752Z,6.87
2023-04-17T01:50:25.897Z,6.90
2023-04-17T01:52:54.183Z,6.90
2023-04-17T01:55:22.455Z,6.87
2023-04-17T01:57:52.240Z,6.87
2023-04-17T02:00:20.982Z,6.89
2023-04-17T02:02:49.187Z,6.91
2023-04-17T02:05:17.749Z,6.93
2023-04-17T02:07:45.882Z,6.97
2023-04-17T02:10:14.189Z,6.98
2023-04-17T02:12:42.310Z,6.92
2023-04-17T02:15:11.030Z,6.98
2023-04-17T02:17:39.178Z,7.00
2023-04-17T02:20:07.956Z,6.99
2023-04-17T02:22:36.266Z,6.91
2023-04-17T02:25:06.895Z,6.99
2023-04-17T02:27:34.968Z,6.96
2023-04-17T02:30:03.930Z,6.95
2023-04-17T02:32:32.182Z,6.95
2023-04-17T02:35:00.437Z,6.94
2023-04-17T02:37:28.580Z,6.92
2023-04-17T02:39:56.906Z,6.91
2023-04-17T02:42:25.037Z,6.89
2023-04-17T02:44:54.061Z,6.85
2023-04-17T02:47:22.776Z,6.86
2023-04-17T02:49:51.303Z,6.85
2023-04-17T02:52:19.426Z,6.84
2023-04-17T02:54:47.617Z,6.83
2023-04-17T02:57:15.869Z,6.83
2023-04-17T02:59:44.119Z,6.81
2023-04-17T03:02:14.816Z,6.81
2023-04-17T03:04:43.491Z,6.78
2023-04-17T03:07:13.732Z,6.77
2023-04-17T03:09:42.943Z,6.75
2023-04-17T03:12:11.289Z,6.75
2023-04-17T03:14:39.391Z,6.63
2023-04-17T03:17:08.123Z,6.73
2023-04-17T03:19:36.379Z,6.72
2023-04-17T03:22:04.714Z,6.73
2023-04-17T03:24:33.089Z,6.71
2023-04-17T03:27:02.385Z,6.70
2023-04-17T03:29:37.724Z,6.68
2023-04-17T03:32:06.510Z,6.65
2023-04-17T03:34:35.120Z,6.64
2023-04-17T03:37:03.370Z,6.54
2023-04-17T03:39:31.711Z,6.58
2023-04-17T03:41:59.881Z,6.57
2023-04-17T03:44:28.112Z,6.54
2023-04-17T03:46:56.404Z,6.56
2023-04-17T03:49:24.686Z,6.57
2023-04-17T03:51:52.815Z,6.58
2023-04-17T03:54:21.963Z,6.45
2023-04-17T03:56:50.568Z,6.56
2023-04-17T03:59:19.237Z,6.55
2023-04-17T04:01:47.594Z,6.53
2023-04-17T04:04:19.652Z,6.49
2023-04-17T04:06:49.631Z,6.46
2023-04-17T04:09:21.578Z,6.46
2023-04-17T04:11:49.842Z,6.46
2023-04-17T04:14:18.361Z,6.46
2023-04-17T04:16:48.057Z,6.46
2023-04-17T04:19:16.331Z,6.47
2023-04-17T04:21:45.329Z,6.40
2023-04-17T04:24:14.645Z,6.48
2023-04-17T04:26:43.571Z,6.51
2023-04-17T04:29:14.169Z,6.54
2023-04-17T04:31:54.289Z,6.56
2023-04-17T04:34:30.159Z,6.57
2023-04-17T04:36:58.734Z,6.57
2023-04-17T04:39:48.044Z,6.62
2023-04-17T04:42:22.485Z,6.63
2023-04-17T04:45:05.639Z,6.66
2023-04-17T04:47:34.392Z,6.71
2023-04-17T04:50:03.371Z,6.65
2023-04-17T04:52:31.918Z,6.66
2023-04-17T04:55:02.081Z,6.76
2023-04-17T04:57:31.365Z,6.74
2023-04-17T05:00:01.338Z,6.69
2023-04-17T05:02:33.942Z,6.78
2023-04-17T05:05:02.773Z,6.82
2023-04-17T05:07:32.875Z,6.82
2023-04-17T05:10:01.603Z,6.85
2023-04-17T05:12:30.930Z,6.87
2023-04-17T05:14:59.543Z,6.87
2023-04-17T05:17:28.677Z,6.87
2023-04-17T05:19:57.215Z,6.90
2023-04-17T05:22:27.848Z,6.94
2023-04-17T05:25:08.629Z,6.97
2023-04-17T05:27:36.859Z,6.99
2023-04-17T05:30:05.827Z,7.03
2023-04-17T05:32:35.406Z,7.08
2023-04-17T05:35:17.462Z,7.11
2023-04-17T05:37:46.114Z,7.14
2023-04-17T05:40:14.307Z,7.18
2023-04-17T05:42:42.605Z,7.24
2023-04-17T05:45:14.726Z,7.26
2023-04-17T05:47:42.871Z,7.30
2023-04-17T05:50:11.226Z,7.32
2023-04-17T05:52:39.815Z,7.36
2023-04-17T05:55:09.711Z,7.39
2023-04-17T05:57:38.580Z,7.43
2023-04-17T06:00:12.181Z,7.49
2023-04-17T06:02:44.013Z,7.58
2023-04-17T06:05:17.643Z,7.63
2023-04-17T06:07:46.458Z,7.64
2023-04-17T06:10:15.625Z,7.68
2023-04-17T06:12:44.145Z,7.71
2023-04-17T06:15:12.557Z,7.73
2023-04-17T06:17:41.053Z,7.70
2023-04-17T06:20:13.307Z,7.83
2023-04-17T06:22:44.312Z,7.91
2023-04-17T06:25:13.247Z,8.00
2023-04-17T06:27:41.523Z,8.09
2023-04-17T06:30:10.532Z,8.13
2023-04-17T06:32:49.456Z,8.14
2023-04-17T06:35:17.922Z,8.18
2023-04-17T06:37:49.572Z,8.23
2023-04-17T06:40:17.850Z,8.26
2023-04-17T06:42:46.077Z,8.33
2023-04-17T06:45:19.354Z,8.40
2023-04-17T06:47:47.722Z,8.36
2023-04-17T06:50:18.596Z,8.49
2023-04-17T06:52:46.818Z,8.52
2023-04-17T06:55:15.284Z,8.56
2023-04-17T06:57:43.448Z,8.60
2023-04-17T07:00:12.343Z,8.66
2023-04-17T07:02:40.681Z,8.70
2023-04-17T07:05:09.628Z,8.74
2023-04-17T07:07:37.785Z,8.75
2023-04-17T07:10:06.972Z,8.77
2023-04-17T07:12:35.069Z,8.78
2023-04-17T07:15:03.408Z,8.90
2023-04-17T07:17:31.646Z,8.95
2023-04-17T07:20:00.039Z,9.00
2023-04-17T07:22:28.917Z,9.08
2023-04-17T07:24:57.059Z,9.05
2023-04-17T07:27:25.277Z,9.20
2023-04-17T07:29:55.297Z,9.22
2023-04-17T07:32:26.937Z,9.29
2023-04-17T07:34:55.094Z,9.41
2023-04-17T07:37:23.195Z,9.49
2023-04-17T07:39:51.368Z,9.51
2023-04-17T07:42:19.469Z,9.44
2023-04-17T07:44:48.841Z,9.48
2023-04-17T07:47:17.061Z,9.34
2023-04-17T07:49:49.013Z,9.41
2023-04-17T07:52:18.336Z,9.42
2023-04-17T07:54:46.509Z,9.43
2023-04-17T07:57:15.670Z,9.46
2023-04-17T07:59:44.622Z,9.50
2023-04-17T08:02:12.830Z,9.49
2023-04-17T08:04:41.949Z,9.52
2023-04-17T08:07:11.393Z,9.56
2023-04-17T08:09:40.610Z,9.56
2023-04-17T08:12:10.093Z,9.57
2023-04-17T08:14:38.970Z,9.53
2023-04-17T08:17:07.863Z,9.49
2023-04-17T08:19:36.062Z,9.48
2023-04-17T08:22:06.231Z,9.50
2023-04-17T08:24:34.545Z,9.46
2023-04-17T08:27:04.318Z,9.42
2023-04-17T08:29:32.522Z,9.40
2023-04-17T08:32:13.971Z,9.38
2023-04-17T08:34:44.608Z,9.41
2023-04-17T08:37:13.305Z,9.44
2023-04-17T08:39:41.588Z,9.42
2023-04-17T08:42:18.472Z,9.39
2023-04-17T08:44:47.364Z,9.37
2023-04-17T08:47:17.943Z,9.42
2023-04-17T08:49:47.358Z,9.45
2023-04-17T08:52:15.734Z,9.53
2023-04-17T08:54:43.844Z,9.59
2023-04-17T08:57:12.081Z,9.59
2023-04-17T08:59:42.299Z,9.75
2023-04-17T09:02:10.531Z,9.86
2023-04-17T09:04:41.962Z,9.92
2023-04-17T09:07:12.252Z,9.97
2023-04-17T09:09:47.966Z,10.05
2023-04-17T09:12:16.449Z,10.11
2023-04-17T09:14:44.792Z,10.13
2023-04-17T09:17:15.353Z,10.10
2023-04-17T09:20:07.588Z,10.10
2023-04-17T09:22:37.267Z,10.07
2023-04-17T09:25:21.664Z,10.07
2023-04-17T09:27:50.125Z,10.08
2023-04-17T09:30:18.441Z,10.10
2023-04-17T09:32:46.708Z,10.08
2023-04-17T09:35:27.654Z,10.04
2023-04-17T09:37:59.347Z,9.93
2023-04-17T09:40:36.757Z,9.83
2023-04-17T09:43:09.498Z,9.72
2023-04-17T09:45:42.154Z,9.70
2023-04-17T09:48:12.826Z,9.74
2023-04-17T09:50:41.045Z,9.77
2023-04-17T09:53:09.396Z,9.74
2023-04-17T09:55:41.790Z,9.70
2023-04-17T09:58:10.319Z,9.70
2023-04-17T10:00:41.906Z,9.72
2023-04-17T10:03:10.363Z,9.64
2023-04-17T10:05:38.917Z,9.83
2023-04-17T10:08:07.716Z,9.88
2023-04-17T10:10:36.741Z,9.96
2023-04-17T10:13:08.322Z,10.00
2023-04-17T10:15:38.823Z,10.01
2023-04-17T10:18:21.831Z,10.02
2023-04-17T10:20:53.935Z,10.06
2023-04-17T10:23:35.127Z,10.13
2023-04-17T10:26:25.382Z,10.17
2023-04-17T10:28:56.162Z,10.16
2023-04-17T10:32:03.379Z,10.14
2023-04-17T10:34:36.722Z,10.23
2023-04-17T10:37:06.048Z,10.36
2023-04-17T10:40:01.892Z,10.26
2023-04-17T10:42:30.650Z,10.48
2023-04-17T10:45:01.758Z,10.53
2023-04-17T10:47:35.180Z,10.60
2023-04-17T10:50:05.368Z,10.73
2023-04-17T10:52:33.519Z,10.84
2023-04-17T10:55:23.818Z,10.93
2023-04-17T10:57:52.645Z,11.02
2023-04-17T11:00:28.511Z,11.12
2023-04-17T11:02:57.003Z,11.24
2023-04-17T11:05:25.352Z,11.24
2023-04-17T11:07:53.779Z,11.34
2023-04-17T11:10:23.019Z,11.47
2023-04-17T11:12:53.729Z,11.61
2023-04-17T11:15:32.314Z,11.78
2023-04-17T11:18:02.284Z,11.91
2023-04-17T11:20:32.298Z,11.93
2023-04-17T11:23:05.162Z,11.83
2023-04-17T11:25:34.799Z,11.89
2023-04-17T11:28:07.069Z,11.83
2023-04-17T11:30:40.752Z,11.92
2023-04-17T11:33:09.071Z,12.15
2023-04-17T11:35:39.095Z,12.41
2023-04-17T11:38:11.654Z,12.79
2023-04-17T11:41:09.005Z,12.86
2023-04-17T11:43:39.308Z,12.94
2023-04-17T11:46:07.562Z,12.90
2023-04-17T11:48:35.921Z,12.85
2023-04-17T11:51:05.220Z,12.59
2023-04-17T11:53:35.707Z,12.38
2023-04-17T11:56:20.288Z,12.42
2023-04-17T11:58:56.626Z,12.50
2023-04-17T12:01:28.763Z,12.49
2023-04-17T12:03:58.870Z,12.33
2023-04-17T12:06:37.884Z,12.23
2023-04-17T12:09:07.390Z,12.27
2023-04-17T12:11:35.990Z,12.47
2023-04-17T12:14:05.636Z,12.70
2023-04-17T12:16:33.990Z,12.84
2023-04-17T12:19:02.299Z,13.10
2023-04-17T12:21:30.664Z,13.25
2023-04-17T12:23:58.840Z,13.23
2023-04-17T12:26:26.991Z,13.20
2023-04-17T12:28:56.946Z,13.37
2023-04-17T12:31:25.148Z,13.63
2023-04-17T12:33:53.393Z,13.79
2023-04-17T12:36:21.765Z,13.83
2023-04-17T12:38:50.153Z,13.67
2023-04-17T12:41:18.369Z,13.50
2023-04-17T12:43:46.531Z,13.39
2023-04-17T12:46:14.684Z,13.16
2023-04-17T12:48:42.752Z,13.05
2023-04-17T12:51:10.865Z,12.86
2023-04-17T12:53:38.993Z,12.79
2023-04-17T12:56:07.715Z,12.72
2023-04-17T12:58:35.899Z,12.59
2023-04-17T13:01:04.107Z,12.47
2023-04-17T13:03:32.538Z,12.39
2023-04-17T13:06:00.813Z,12.30
2023-04-17T13:08:30.821Z,12.19
2023-04-17T13:11:00.016Z,12.01
2023-04-17T13:13:28.226Z,11.95
2023-04-17T13:15:56.409Z,11.94
2023-04-17T13:18:24.598Z,11.93
2023-04-17T13:20:52.680Z,11.94
2023-04-17T13:23:20.906Z,11.90
2023-04-17T13:25:49.368Z,11.90
2023-04-17T13:28:17.484Z,11.84
2023-04-17T13:30:45.732Z,11.80
2023-04-17T13:33:13.851Z,11.77
2023-04-17T13:35:42.026Z,11.74
2023-04-17T13:38:10.189Z,11.61
2023-04-17T13:40:38.778Z,11.49
2023-04-17T13:43:07.136Z,11.44
2023-04-17T13:45:35.468Z,11.44
2023-04-17T13:48:04.128Z,11.43
2023-04-17T13:50:32.246Z,11.36
2023-04-17T13:53:01.279Z,11.37
2023-04-17T13:55:29.424Z,11.38
2023-04-17T13:57:57.602Z,11.30
2023-04-17T14:00:26.030Z,11.17
2023-04-17T14:02:54.295Z,11.07
2023-04-17T14:05:22.677Z,11.02
2023-04-17T14:07:50.775Z,11.02
2023-04-17T14:10:19.002Z,10.99
2023-04-17T14:12:47.206Z,10.90
2023-04-17T14:15:15.309Z,10.81
2023-04-17T14:17:43.552Z,10.72
2023-04-17T14:20:12.534Z,10.66
2023-04-17T14:22:40.810Z,10.62
2023-04-17T14:25:09.769Z,10.59
2023-04-17T14:27:38.001Z,10.56
2023-04-17T14:30:08.910Z,10.58
2023-04-17T14:32:38.578Z,10.58
2023-04-17T14:35:07.246Z,10.55
2023-04-17T14:37:35.435Z,10.50
2023-04-17T14:40:04.854Z,10.49
2023-04-17T14:42:38.245Z,10.43
2023-04-17T14:45:15.627Z,10.34
2023-04-17T14:47:44.199Z,10.32
2023-04-17T14:50:12.367Z,10.32
2023-04-17T14:52:40.562Z,10.28
2023-04-17T14:55:09.381Z,10.21
2023-04-17T14:57:37.553Z,10.17
2023-04-17T15:00:07.926Z,10.23
2023-04-17T15:02:39.112Z,10.21
2023-04-17T15:05:08.879Z,10.16
2023-04-17T15:07:36.962Z,10.10
2023-04-17T15:10:05.685Z,9.99
2023-04-17T15:12:33.807Z,9.88
2023-04-17T15:15:01.923Z,9.78
2023-04-17T15:17:30.185Z,9.70
2023-04-17T15:20:00.516Z,9.67
2023-04-17T15:22:28.680Z,9.64
2023-04-17T15:24:56.816Z,9.57
2023-04-17T15:27:25.433Z,9.50
2023-04-17T15:29:53.619Z,9.46
2023-04-17T15:32:21.905Z,9.44
2023-04-17T15:34:50.197Z,9.41
2023-04-17T15:37:18.360Z,9.37
2023-04-17T15:39:46.550Z,9.34
2023-04-17T15:42:14.750Z,9.30
2023-04-17T15:44:43.033Z,9.25
2023-04-17T15:47:11.197Z,9.21
2023-04-17T15:49:39.409Z,9.19
2023-04-17T15:52:07.577Z,9.15
2023-04-17T15:54:35.858Z,9.12
2023-04-17T15:57:04.349Z,9.07
2023-04-17T15:59:33.406Z,8.99
2023-04-17T16:02:01.600Z,8.95
2023-04-17T16:04:30.060Z,8.91
2023-04-17T16:06:58.282Z,8.86
2023-04-17T16:09:26.445Z,8.82
2023-04-17T16:11:54.503Z,8.79
2023-04-17T16:14:22.930Z,8.78
2023-04-17T16:16:51.047Z,8.75
2023-04-17T16:19:19.765Z,8.72
2023-04-17T16:21:47.839Z,8.71
2023-04-17T16:24:16.005Z,8.61
2023-04-17T16:26:44.158Z,8.67
2023-04-17T16:29:12.525Z,8.66
2023-04-17T16:31:41.402Z,8.59
2023-04-17T16:34:09.702Z,8.65
2023-04-17T16:36:37.938Z,8.63
2023-04-17T16:39:08.679Z,8.62
2023-04-17T16:41:36.831Z,8.59
2023-04-17T16:44:05.058Z,8.59
2023-04-17T16:46:45.718Z,8.59
2023-04-17T16:49:21.673Z,8.58
2023-04-17T16:51:50.006Z,8.55
2023-04-17T16:54:20.566Z,8.56
2023-04-17T16:56:49.461Z,8.55
2023-04-17T16:59:17.668Z,8.56
2023-04-17T17:01:47.308Z,8.59
2023-04-17T17:04:16.798Z,8.59
2023-04-17T17:06:45.030Z,8.53
2023-04-17T17:09:13.431Z,8.43
2023-04-17T17:11:41.814Z,8.38
2023-04-17T17:14:10.062Z,8.36
2023-04-17T17:16:38.525Z,8.35
2023-04-17T17:19:07.087Z,8.33
2023-04-17T17:21:35.317Z,8.32
2023-04-17T17:24:04.542Z,8.29
2023-04-17T17:26:33.435Z,8.26
2023-04-17T17:29:01.578Z,8.22
2023-04-17T17:31:29.815Z,8.17
2023-04-17T17:34:11.890Z,8.15
2023-04-17T17:36:50.560Z,8.15
2023-04-17T17:39:18.825Z,8.15
2023-04-17T17:41:47.479Z,8.15
2023-04-17T17:44:15.901Z,8.14
2023-04-17T17:46:44.209Z,8.15
2023-04-17T17:49:12.514Z,8.17
2023-04-17T17:51:41.927Z,8.18
2023-04-17T17:54:10.213Z,8.18
2023-04-17T17:56:38.500Z,8.16
2023-04-17T17:59:07.878Z,8.13
2023-04-17T18:01:37.028Z,8.10
2023-04-17T18:04:05.559Z,8.09
2023-04-17T18:06:33.974Z,8.09
2023-04-17T18:09:02.267Z,8.10
2023-04-17T18:11:30.452Z,8.07
2023-04-17T18:14:00.806Z,8.06
2023-04-17T18:16:33.136Z,8.07
2023-04-17T18:19:03.689Z,8.08
2023-04-17T18:21:32.048Z,8.10
2023-04-17T18:24:01.944Z,8.13
2023-04-17T18:26:30.253Z,8.16
2023-04-17T18:28:58.442Z,8.18
2023-04-17T18:31:28.455Z,8.20
2023-04-17T18:33:56.716Z,8.22
2023-04-17T18:36:24.846Z,8.24
2023-04-17T18:38:52.999Z,8.27
2023-04-17T18:41:21.587Z,8.29
2023-04-17T18:43:49.758Z,8.30
2023-04-17T18:46:18.777Z,8.31
2023-04-17T18:48:46.920Z,8.30
2023-04-17T18:51:15.479Z,8.29
2023-04-17T18:53:43.733Z,8.28
2023-04-17T18:56:13.799Z,8.27
2023-04-17T18:58:42.085Z,8.24
2023-04-17T19:01:10.684Z,8.19
2023-04-17T19:03:39.736Z,8.15
2023-04-17T19:06:07.968Z,8.12
2023-04-17T19:08:37.310Z,8.09
2023-04-17T19:11:05.913Z,8.00
2023-04-17T19:13:34.095Z,8.06
2023-04-17T19:16:02.302Z,8.05
2023-04-17T19:18:30.559Z,8.04
2023-04-17T19:20:58.832Z,8.00
2023-04-17T19:23:26.872Z,7.97
2023-04-17T19:25:55.256Z,7.91
2023-04-17T19:28:24.192Z,7.89
2023-04-17T19:30:52.403Z,7.86
2023-04-17T19:33:20.561Z,7.84
2023-04-17T19:35:50.103Z,7.82
2023-04-17T19:38:18.344Z,7.78
2023-04-17T19:41:07.350Z,7.80
2023-04-17T19:43:35.888Z,7.74
2023-04-17T19:46:04.113Z,7.68
2023-04-17T19:48:32.354Z,7.62
2023-04-17T19:51:00.587Z,7.59
2023-04-17T19:53:33.700Z,7.56
2023-04-17T19:56:02.693Z,7.53
2023-04-17T19:58:31.060Z,7.48
2023-04-17T20:00:59.596Z,7.46
2023-04-17T20:03:29.508Z,7.44
2023-04-17T20:05:58.463Z,7.41
2023-04-17T20:08:26.636Z,7.38
2023-04-17T20:10:54.854Z,7.40
2023-04-17T20:13:22.910Z,7.45
2023-04-17T20:15:51.313Z,7.44
2023-04-17T20:18:19.519Z,7.44
2023-04-17T20:20:47.845Z,7.43
2023-04-17T20:23:16.119Z,7.38
2023-04-17T20:25:44.295Z,7.38
2023-04-17T20:28:12.692Z,7.35
2023-04-17T20:30:40.889Z,7.33
2023-04-17T20:33:09.164Z,7.25
2023-04-17T20:35:37.427Z,7.33
2023-04-17T20:38:05.594Z,7.35
2023-04-17T20:40:33.740Z,7.39
2023-04-17T20:43:01.831Z,7.34
2023-04-17T20:45:30.501Z,7.43
2023-04-17T20:47:58.792Z,7.44
2023-04-17T20:50:26.940Z,7.44
2023-04-17T20:52:55.103Z,7.41
2023-04-17T20:55:24.398Z,7.43
2023-04-17T20:57:52.748Z,7.45
2023-04-17T21:00:21.215Z,7.46
2023-04-17T21:02:49.462Z,7.48
2023-04-17T21:05:19.332Z,7.50
2023-04-17T21:07:49.480Z,7.53
2023-04-17T21:10:20.118Z,7.55
2023-04-17T21:12:48.301Z,7.48
2023-04-17T21:15:16.975Z,7.59
2023-04-17T21:17:47.770Z,7.60
2023-04-17T21:20:16.308Z,7.62
2023-04-17T21:22:44.420Z,7.65
2023-04-17T21:25:12.594Z,7.68
2023-04-17T21:27:41.774Z,7.70
2023-04-17T21:30:11.090Z,7.64
2023-04-17T21:32:40.577Z,7.73
2023-04-17T21:35:09.690Z,7.74
2023-04-17T21:37:37.796Z,7.77
2023-04-17T21:40:06.596Z,7.79
2023-04-17T21:42:35.105Z,7.81
2023-04-17T21:45:03.889Z,7.83
2023-04-17T21:47:32.144Z,7.84
2023-04-17T21:50:00.532Z,7.86
2023-04-17T21:52:28.832Z,7.88
2023-04-17T21:55:03.011Z,7.91
2023-04-17T21:57:35.116Z,7.93
2023-04-17T22:00:05.391Z,7.94
2023-04-17T22:02:35.018Z,7.96
2023-04-17T22:05:03.562Z,7.95
2023-04-17T22:07:38.112Z,7.96
2023-04-17T22:10:12.248Z,7.97
2023-04-17T22:12:40.436Z,7.99
2023-04-17T22:15:09.316Z,8.00
2023-04-17T22:17:37.532Z,8.02
2023-04-17T22:21:02.195Z,8.04
2023-04-17T22:24:45.807Z,8.03
2023-04-17T22:28:28.819Z,8.05
2023-04-17T22:32:11.734Z,8.08
2023-04-17T22:35:55.990Z,8.08
2023-04-17T22:39:39.654Z,8.08
2023-04-17T22:43:22.626Z,8.07
2023-04-17T22:47:05.692Z,8.05
2023-04-17T22:50:48.922Z,8.03
2023-04-17T22:54:31.712Z,8.02
2023-04-17T22:58:14.715Z,8.02
2023-04-17T23:01:57.573Z,8.01
2023-04-17T23:05:40.730Z,7.98
2023-04-17T23:09:23.036Z,7.99
2023-04-17T23:11:51.439Z,7.98
2023-04-17T23:14:19.599Z,7.96
2023-04-17T23:16:47.994Z,7.99
2023-04-17T23:19:16.238Z,7.99
2023-04-17T23:21:44.334Z,7.94
2023-04-17T23:24:12.605Z,8.01
2023-04-17T23:26:40.959Z,8.00
2023-04-17T23:29:09.088Z,7.99
2023-04-17T23:31:38.371Z,7.97
2023-04-17T23:34:06.593Z,7.97
2023-04-17T23:36:34.734Z,7.94
2023-04-17T23:39:03.261Z,7.96
2023-04-17T23:41:33.779Z,7.95
2023-04-17T23:44:03.896Z,7.94
2023-04-17T23:46:32.075Z,7.91
2023-04-17T23:49:00.212Z,7.90
2023-04-17T23:51:28.388Z,7.89
2023-04-17T23:53:59.396Z,7.88
2023-04-17T23:56:30.098Z,7.86
2023-04-17T23:58:58.308Z,7.70
